createdAt,value
2019-02-17T00:00:37.059Z,99.90
2019-02-17T00:03:09.483Z,99.90
2019-02-17T00:05:41.350Z,99.90
2019-02-17T00:08:13.431Z,99.90
2019-02-17T00:10:45.486Z,99.90
2019-02-17T00:13:17.466Z,99.90
2019-02-17T00:15:50.130Z,99.90
2019-02-17T00:18:22.131Z,99.90
2019-02-17T00:20:54.107Z,99.90
2019-02-17T00:23:26.248Z,99.90
2019-02-17T00:25:58.469Z,99.90
2019-02-17T00:28:33.248Z,99.90
2019-02-17T00:31:05.537Z,99.90
2019-02-17T00:33:37.450Z,99.90
2019-02-17T00:36:09.341Z,99.90
2019-02-17T00:38:41.210Z,99.90
2019-02-17T00:41:13.534Z,99.90
2019-02-17T00:43:45.975Z,99.90
2019-02-17T00:46:19.236Z,99.90
2019-02-17T00:48:51.238Z,99.90
2019-02-17T00:51:23.323Z,99.90
2019-02-17T00:53:56.875Z,99.90
2019-02-17T00:56:28.802Z,99.90
2019-02-17T00:59:09.664Z,99.90
2019-02-17T01:01:35.108Z,99.90
2019-02-17T01:04:07.680Z,99.90
2019-02-17T01:06:40.802Z,99.90
2019-02-17T01:09:17.604Z,99.90
2019-02-17T01:11:50.255Z,99.90
2019-02-17T01:14:27.017Z,99.90
2019-02-17T01:17:00.003Z,99.90
2019-02-17T01:19:35.040Z,99.90
2019-02-17T01:22:09.749Z,99.90
2019-02-17T01:24:43.645Z,99.90
2019-02-17T01:27:16.066Z,99.90
2019-02-17T01:29:50.119Z,99.90
2019-02-17T01:32:22.423Z,99.90
2019-02-17T01:34:54.960Z,99.90
2019-02-17T01:37:27.640Z,99.90
2019-02-17T01:40:01.264Z,99.90
2019-02-17T01:42:34.784Z,99.90
2019-02-17T01:45:08.616Z,99.90
2019-02-17T01:47:42.624Z,99.90
2019-02-17T01:50:15.005Z,99.90
2019-02-17T01:52:48.999Z,99.90
2019-02-17T01:55:21.053Z,99.90
2019-02-17T01:57:53.044Z,99.90
2019-02-17T02:00:25.394Z,99.90
2019-02-17T02:02:57.508Z,99.90
2019-02-17T02:05:29.634Z,99.90
2019-02-17T02:08:01.818Z,99.90
2019-02-17T02:10:34.087Z,99.90
2019-02-17T02:13:06.326Z,99.90
2019-02-17T02:15:38.586Z,99.90
2019-02-17T02:18:10.790Z,99.90
2019-02-17T02:20:44.573Z,99.90
2019-02-17T02:23:16.899Z,99.90
2019-02-17T02:25:48.828Z,99.90
2019-02-17T02:28:20.990Z,99.90
2019-02-17T02:30:53.471Z,99.90
2019-02-17T02:33:25.807Z,99.90
2019-02-17T02:35:58.082Z,99.90
2019-02-17T02:38:30.205Z,99.90
2019-02-17T02:41:02.476Z,99.90
2019-02-17T02:43:34.896Z,99.90
2019-02-17T02:46:07.318Z,99.90
2019-02-17T02:48:39.729Z,99.90
2019-02-17T02:51:12.025Z,99.90
2019-02-17T02:53:45.315Z,99.90
2019-02-17T02:56:17.482Z,99.90
2019-02-17T02:58:49.732Z,99.90
2019-02-17T03:01:21.952Z,99.90
2019-02-17T03:03:57.282Z,99.90
2019-02-17T03:06:39.181Z,99.90
2019-02-17T03:09:11.326Z,99.90
2019-02-17T03:11:43.537Z,99.90
2019-02-17T03:14:15.964Z,99.90
2019-02-17T03:16:48.119Z,99.90
2019-02-17T03:19:20.085Z,99.90
2019-02-17T03:21:53.293Z,99.90
2019-02-17T03:24:25.573Z,99.90
2019-02-17T03:26:57.611Z,99.90
2019-02-17T03:29:29.627Z,99.90
2019-02-17T03:34:54.639Z,99.90
2019-02-17T03:37:26.579Z,99.90
2019-02-17T03:39:58.630Z,99.90
2019-02-17T03:42:49.835Z,99.90
2019-02-17T03:45:21.820Z,99.90
2019-02-17T03:47:53.878Z,99.90
2019-02-17T03:50:39.082Z,99.90
2019-02-17T03:53:22.874Z,99.90
2019-02-17T03:56:15.044Z,99.90
2019-02-17T03:58:58.963Z,99.90
2019-02-17T04:01:50.472Z,99.90
2019-02-17T04:04:36.484Z,99.90
2019-02-17T04:07:27.780Z,99.90
2019-02-17T04:10:12.148Z,99.90
2019-02-17T04:13:03.122Z,99.90
2019-02-17T04:15:47.705Z,99.90
2019-02-17T04:18:38.880Z,99.90
2019-02-17T04:21:23.103Z,99.90
2019-02-17T04:24:14.355Z,99.90
2019-02-17T04:26:57.771Z,99.90
2019-02-17T04:29:48.918Z,99.90
2019-02-17T04:32:20.965Z,99.90
2019-02-17T04:35:12.007Z,99.90
2019-02-17T04:37:56.025Z,99.90
2019-02-17T04:40:47.190Z,99.90
2019-02-17T04:43:19.168Z,99.90
2019-02-17T04:46:10.362Z,99.90
2019-02-17T04:48:55.277Z,99.90
2019-02-17T04:51:39.468Z,99.90
2019-02-17T04:54:23.743Z,99.90
2019-02-17T04:57:07.166Z,99.90
2019-02-17T04:59:58.325Z,99.90
2019-02-17T05:02:30.371Z,99.90
2019-02-17T05:05:02.359Z,99.90
2019-02-17T05:07:34.378Z,99.90
2019-02-17T05:10:06.688Z,99.90
2019-02-17T05:12:57.908Z,99.90
2019-02-17T05:15:41.599Z,99.90
2019-02-17T05:18:32.963Z,99.90
2019-02-17T05:21:16.669Z,99.90
2019-02-17T05:24:07.902Z,99.90
2019-02-17T05:26:51.641Z,99.90
2019-02-17T05:29:42.976Z,99.90
2019-02-17T05:32:28.537Z,99.90
2019-02-17T05:35:30.790Z,99.90
2019-02-17T05:38:21.899Z,99.90
2019-02-17T05:41:06.241Z,99.90
2019-02-17T05:43:57.466Z,99.90
2019-02-17T05:46:41.157Z,99.90
2019-02-17T05:49:25.048Z,99.90
2019-02-17T05:52:08.588Z,99.90
2019-02-17T05:54:59.687Z,99.90
2019-02-17T05:57:45.516Z,99.90
2019-02-17T06:03:47.455Z,99.90
2019-02-17T06:06:38.433Z,99.90
2019-02-17T06:09:22.497Z,99.90
2019-02-17T06:12:13.792Z,99.90
2019-02-17T06:14:57.356Z,99.90
2019-02-17T06:17:48.650Z,99.90
2019-02-17T06:20:32.368Z,99.90
2019-02-17T06:23:23.455Z,99.90
2019-02-17T06:26:07.651Z,99.90
2019-02-17T06:28:51.184Z,99.90
2019-02-17T06:31:34.545Z,99.90
2019-02-17T06:34:18.281Z,99.90
2019-02-17T06:36:50.455Z,99.90
2019-02-17T06:39:34.636Z,99.90
2019-02-17T06:42:25.650Z,99.90
2019-02-17T06:45:09.253Z,99.90
2019-02-17T06:48:00.464Z,99.90
2019-02-17T06:50:43.949Z,99.90
2019-02-17T06:53:35.161Z,99.90
2019-02-17T06:59:36.098Z,99.90
2019-02-17T07:02:25.172Z,99.90
2019-02-17T07:05:25.491Z,99.90
2019-02-17T07:07:57.515Z,99.90
2019-02-17T07:10:29.686Z,99.90
2019-02-17T07:13:01.867Z,99.90
2019-02-17T07:15:33.833Z,99.90
2019-02-17T07:18:05.894Z,99.90
2019-02-17T07:20:49.935Z,99.90
2019-02-17T07:23:41.303Z,99.90
2019-02-17T07:26:26.345Z,99.90
2019-02-17T07:29:17.544Z,99.90
2019-02-17T07:32:02.390Z,99.90
2019-02-17T07:34:53.586Z,99.90
2019-02-17T07:37:37.327Z,99.90
2019-02-17T07:40:09.709Z,99.90
2019-02-17T07:42:53.540Z,99.90
2019-02-17T07:45:37.071Z,99.90
2019-02-17T07:48:09.272Z,99.90
2019-02-17T07:50:42.782Z,99.90
2019-02-17T07:53:16.979Z,99.90
2019-02-17T07:56:08.166Z,99.90
2019-02-17T07:58:55.784Z,99.90
2019-02-17T08:01:45.282Z,99.90
2019-02-17T08:04:26.709Z,99.90
2019-02-17T08:07:18.260Z,99.90
2019-02-17T08:09:50.397Z,99.90
2019-02-17T08:12:41.519Z,99.90
2019-02-17T08:15:13.602Z,99.90
2019-02-17T08:17:45.679Z,99.90
2019-02-17T08:20:29.640Z,99.90
2019-02-17T08:23:20.929Z,99.90
2019-02-17T08:26:04.348Z,99.90
2019-02-17T08:28:55.577Z,99.90
2019-02-17T08:31:39.559Z,99.90
2019-02-17T08:34:31.036Z,99.90
2019-02-17T08:37:15.157Z,99.90
2019-02-17T08:40:07.030Z,99.90
2019-02-17T08:42:50.943Z,99.90
2019-02-17T08:45:34.366Z,99.90
2019-02-17T08:48:34.611Z,99.90
2019-02-17T08:51:19.301Z,99.90
2019-02-17T08:54:06.215Z,99.90
2019-02-17T08:56:52.219Z,99.90
2019-02-17T08:59:37.268Z,99.90
2019-02-17T09:02:34.749Z,99.90
2019-02-17T09:05:19.143Z,99.90
2019-02-17T09:11:09.423Z,99.90
2019-02-17T09:13:55.332Z,99.90
2019-02-17T09:16:39.626Z,99.90
2019-02-17T09:19:24.769Z,99.90
2019-02-17T09:25:10.816Z,99.90
2019-02-17T09:28:02.123Z,99.90
2019-02-17T09:34:09.530Z,99.90
2019-02-17T09:36:56.392Z,99.90
2019-02-17T09:39:47.744Z,99.90
2019-02-17T09:42:35.928Z,99.90
2019-02-17T09:45:18.012Z,99.90
2019-02-17T09:48:05.707Z,99.90
2019-02-17T09:50:48.609Z,99.90
2019-02-17T09:53:20.769Z,99.90
2019-02-17T09:55:55.093Z,99.90
2019-02-17T09:59:04.651Z,99.90
2019-02-17T10:01:48.153Z,99.90
2019-02-17T10:04:39.445Z,99.90
2019-02-17T10:07:24.006Z,99.90
2019-02-17T10:10:15.416Z,99.90
2019-02-17T10:13:01.336Z,99.90
2019-02-17T10:15:54.673Z,99.90
2019-02-17T10:18:40.668Z,99.90
2019-02-17T10:21:31.777Z,99.90
2019-02-17T10:24:15.344Z,99.90
2019-02-17T10:31:05.618Z,99.90
2019-02-17T10:33:43.767Z,99.90
2019-02-17T10:36:16.002Z,99.90
2019-02-17T10:38:48.908Z,99.90
2019-02-17T10:41:39.576Z,99.90
2019-02-17T10:44:30.686Z,99.90
2019-02-17T10:47:14.654Z,99.90
2019-02-17T10:50:06.491Z,99.90
2019-02-17T10:52:53.695Z,99.90
2019-02-17T10:55:44.861Z,99.50
2019-02-17T10:58:31.031Z,99.10
2019-02-17T11:01:22.119Z,98.50
2019-02-17T11:04:09.396Z,98.60
2019-02-17T11:07:01.632Z,98.60
2019-02-17T11:09:45.387Z,98.30
2019-02-17T11:12:31.751Z,97.90
2019-02-17T11:18:14.613Z,97.70
2019-02-17T11:20:59.803Z,97.40
2019-02-17T11:23:50.962Z,96.80
2019-02-17T11:26:34.284Z,96.70
2019-02-17T11:32:16.823Z,96.30
2019-02-17T11:35:01.967Z,96.20
2019-02-17T11:37:53.404Z,95.60
2019-02-17T11:40:37.022Z,95.10
2019-02-17T11:43:21.086Z,94.70
2019-02-17T11:46:12.121Z,94.30
2019-02-17T11:48:56.236Z,94.30
2019-02-17T11:51:28.203Z,94.00
2019-02-17T11:54:12.955Z,93.50
2019-02-17T11:56:45.233Z,93.30
2019-02-17T11:59:18.005Z,92.80
2019-02-17T12:02:02.629Z,92.90
2019-02-17T12:04:46.118Z,92.30
2019-02-17T12:07:29.940Z,92.30
2019-02-17T12:10:21.282Z,91.70
2019-02-17T12:12:53.347Z,91.60
2019-02-17T12:15:44.566Z,91.30
2019-02-17T12:18:28.180Z,91.20
2019-02-17T12:21:38.147Z,90.90
2019-02-17T12:24:33.119Z,90.00
2019-02-17T12:27:32.547Z,90.00
2019-02-17T12:30:19.938Z,90.30
2019-02-17T12:33:17.943Z,89.30
2019-02-17T12:36:01.794Z,89.70
2019-02-17T12:38:33.943Z,89.60
2019-02-17T12:41:17.682Z,90.20
2019-02-17T12:44:09.450Z,88.80
2019-02-17T12:46:41.663Z,87.70
2019-02-17T12:49:33.054Z,88.20
2019-02-17T12:52:18.377Z,87.50
2019-02-17T12:55:01.781Z,86.50
2019-02-17T12:57:36.301Z,86.10
2019-02-17T13:00:24.860Z,84.70
2019-02-17T13:03:15.986Z,84.80
2019-02-17T13:05:48.688Z,84.10
2019-02-17T13:08:40.207Z,83.80
2019-02-17T13:11:25.969Z,82.90
2019-02-17T13:14:16.629Z,83.90
2019-02-17T13:17:01.847Z,84.80
2019-02-17T13:19:52.999Z,82.50
2019-02-17T13:22:38.202Z,81.70
2019-02-17T13:25:29.361Z,82.00
2019-02-17T13:28:13.215Z,81.00
2019-02-17T13:31:04.402Z,80.30
2019-02-17T13:33:48.472Z,80.50
2019-02-17T13:36:39.870Z,79.90
2019-02-17T13:39:23.398Z,78.40
2019-02-17T13:41:55.381Z,76.80
2019-02-17T13:44:39.075Z,76.10
2019-02-17T13:47:30.390Z,76.50
2019-02-17T13:50:02.522Z,76.70
2019-02-17T13:52:46.631Z,76.80
2019-02-17T13:55:30.786Z,79.00
2019-02-17T13:58:21.877Z,81.50
2019-02-17T14:01:05.305Z,82.60
2019-02-17T14:03:49.477Z,83.00
2019-02-17T14:06:40.824Z,82.90
2019-02-17T14:09:24.393Z,82.50
2019-02-17T14:12:15.491Z,80.60
2019-02-17T14:14:59.315Z,80.60
2019-02-17T14:17:42.874Z,80.20
2019-02-17T14:20:15.032Z,80.40
2019-02-17T14:22:58.506Z,80.00
2019-02-17T14:25:49.927Z,79.70
2019-02-17T14:28:33.619Z,79.10
2019-02-17T14:33:58.659Z,77.40
2019-02-17T14:36:45.389Z,77.40
2019-02-17T14:39:36.820Z,75.50
2019-02-17T14:42:20.316Z,74.80
2019-02-17T14:45:11.494Z,74.90
2019-02-17T14:47:55.611Z,74.30
2019-02-17T14:50:46.980Z,72.50
2019-02-17T14:53:30.455Z,73.10
2019-02-17T14:56:14.632Z,71.10
2019-02-17T14:58:58.719Z,70.70
2019-02-17T15:01:49.866Z,68.80
2019-02-17T15:04:33.907Z,68.60
2019-02-17T15:07:17.800Z,68.90
2019-02-17T15:10:09.345Z,68.20
2019-02-17T15:12:52.862Z,69.10
2019-02-17T15:15:44.040Z,69.60
2019-02-17T15:18:29.917Z,67.20
2019-02-17T15:21:21.135Z,71.00
2019-02-17T15:24:05.481Z,75.50
2019-02-17T15:26:48.895Z,75.70
2019-02-17T15:29:32.563Z,76.50
2019-02-17T15:32:23.791Z,75.80
2019-02-17T15:35:08.031Z,74.10
2019-02-17T15:37:59.279Z,73.30
2019-02-17T15:40:43.288Z,72.80
2019-02-17T15:43:34.727Z,71.60
2019-02-17T15:46:19.056Z,71.90
2019-02-17T15:49:10.312Z,71.20
2019-02-17T15:51:53.837Z,70.90
2019-02-17T15:54:26.121Z,71.10
2019-02-17T15:56:58.405Z,71.90
2019-02-17T15:59:30.371Z,71.90
2019-02-17T16:02:03.822Z,71.10
2019-02-17T16:04:35.949Z,71.30
2019-02-17T16:07:07.918Z,71.10
2019-02-17T16:09:40.188Z,70.80
2019-02-17T16:12:31.224Z,71.00
2019-02-17T16:15:15.199Z,71.20
2019-02-17T16:18:06.162Z,71.40
2019-02-17T16:20:49.834Z,71.70
2019-02-17T16:23:41.055Z,72.00
2019-02-17T16:26:25.106Z,72.40
2019-02-17T16:29:16.303Z,72.80
2019-02-17T16:32:02.101Z,73.60
2019-02-17T16:34:54.271Z,74.00
2019-02-17T16:37:37.974Z,74.10
2019-02-17T16:40:29.191Z,74.50
2019-02-17T16:43:13.499Z,74.40
2019-02-17T16:46:04.750Z,74.80
2019-02-17T16:48:48.536Z,74.90
2019-02-17T16:51:39.744Z,74.80
2019-02-17T16:54:25.123Z,75.80
2019-02-17T16:57:16.244Z,76.40
2019-02-17T17:00:00.632Z,76.50
2019-02-17T17:02:52.635Z,77.30
2019-02-17T17:05:25.378Z,77.40
2019-02-17T17:08:17.339Z,77.40
2019-02-17T17:11:02.992Z,78.60
2019-02-17T17:13:54.641Z,79.00
2019-02-17T17:16:38.581Z,79.40
2019-02-17T17:19:29.842Z,79.90
2019-02-17T17:22:13.329Z,80.60
2019-02-17T17:25:04.602Z,81.30
2019-02-17T17:27:49.064Z,81.70
2019-02-17T17:30:33.175Z,82.30
2019-02-17T17:33:24.380Z,82.40
2019-02-17T17:36:07.815Z,82.90
2019-02-17T17:38:59.096Z,83.20
2019-02-17T17:41:44.288Z,84.00
2019-02-17T17:44:35.400Z,84.50
2019-02-17T17:47:19.231Z,84.90
2019-02-17T17:50:11.753Z,85.40
2019-02-17T17:52:56.836Z,86.00
2019-02-17T17:55:41.611Z,86.80
2019-02-17T17:58:32.803Z,86.70
2019-02-17T18:01:17.771Z,87.10
2019-02-17T18:04:09.270Z,87.90
2019-02-17T18:07:05.200Z,88.00
2019-02-17T18:09:56.401Z,88.70
2019-02-17T18:12:40.693Z,89.40
2019-02-17T18:15:24.475Z,89.30
2019-02-17T18:18:15.581Z,89.50
2019-02-17T18:20:59.149Z,89.70
2019-02-17T18:23:50.497Z,90.00
2019-02-17T18:26:34.374Z,90.00
2019-02-17T18:29:25.631Z,90.50
2019-02-17T18:32:10.960Z,90.70
2019-02-17T18:35:01.979Z,91.40
2019-02-17T18:37:47.826Z,91.40
2019-02-17T18:40:44.954Z,91.60
2019-02-17T18:43:38.893Z,91.60
2019-02-17T18:46:23.449Z,92.00
2019-02-17T18:49:14.596Z,92.10
2019-02-17T18:51:46.481Z,92.40
2019-02-17T18:54:19.658Z,92.50
2019-02-17T18:57:08.140Z,92.50
2019-02-17T18:59:56.202Z,92.70
2019-02-17T19:02:40.154Z,93.00
2019-02-17T19:05:32.466Z,93.10
2019-02-17T19:08:36.074Z,93.30
2019-02-17T19:11:27.409Z,93.40
2019-02-17T19:14:11.581Z,93.50
2019-02-17T19:17:03.009Z,93.40
2019-02-17T19:19:35.557Z,93.70
2019-02-17T19:22:26.974Z,93.90
2019-02-17T19:28:07.777Z,93.60
2019-02-17T19:30:58.956Z,94.10
2019-02-17T19:33:43.495Z,94.30
2019-02-17T19:36:34.639Z,94.60
2019-02-17T19:39:19.697Z,95.00
2019-02-17T19:41:52.054Z,95.10
2019-02-17T19:44:24.226Z,95.40
2019-02-17T19:47:15.375Z,95.30
2019-02-17T19:50:00.578Z,95.30
2019-02-17T19:52:51.801Z,95.50
2019-02-17T19:55:35.680Z,95.80
2019-02-17T19:58:20.178Z,96.10
2019-02-17T20:01:03.574Z,96.10
2019-02-17T20:04:06.708Z,96.30
2019-02-17T20:06:59.884Z,96.40
2019-02-17T20:10:02.336Z,96.30
2019-02-17T20:12:53.604Z,96.10
2019-02-17T20:15:38.987Z,96.30
2019-02-17T20:18:30.165Z,96.30
2019-02-17T20:21:14.035Z,96.40
2019-02-17T20:24:05.056Z,96.40
2019-02-17T20:26:48.655Z,96.40
2019-02-17T20:29:40.769Z,96.50
2019-02-17T20:32:24.699Z,96.50
2019-02-17T20:35:16.006Z,96.60
2019-02-17T20:38:07.457Z,96.60
2019-02-17T20:40:51.271Z,96.80
2019-02-17T20:43:42.789Z,97.00
2019-02-17T20:46:32.838Z,96.90
2019-02-17T20:49:17.646Z,96.90
2019-02-17T20:51:49.854Z,96.90
2019-02-17T20:54:34.136Z,97.10
2019-02-17T20:57:18.035Z,97.30
2019-02-17T21:00:08.358Z,97.10
2019-02-17T21:02:51.013Z,97.20
2019-02-17T21:05:35.925Z,97.40
2019-02-17T21:08:27.692Z,97.40
2019-02-17T21:11:00.423Z,97.60
2019-02-17T21:13:51.740Z,97.80
2019-02-17T21:16:36.388Z,97.80
2019-02-17T21:19:12.071Z,97.90
2019-02-17T21:21:56.036Z,98.00
2019-02-17T21:24:47.280Z,98.10
2019-02-17T21:27:19.403Z,98.10
2019-02-17T21:30:11.144Z,98.20
2019-02-17T21:32:43.326Z,98.60
2019-02-17T21:35:15.619Z,98.80
2019-02-17T21:37:48.212Z,98.90
2019-02-17T21:40:20.167Z,98.60
2019-02-17T21:42:52.477Z,98.80
2019-02-17T21:45:24.807Z,98.60
2019-02-17T21:48:09.628Z,98.90
2019-02-17T21:50:47.557Z,99.00
2019-02-17T21:53:20.857Z,99.20
2019-02-17T21:56:31.447Z,99.50
2019-02-17T21:59:03.692Z,99.40
2019-02-17T22:01:36.029Z,99.20
2019-02-17T22:04:08.587Z,99.20
2019-02-17T22:06:40.950Z,99.20
2019-02-17T22:09:32.497Z,99.30
2019-02-17T22:12:16.264Z,99.30
2019-02-17T22:15:09.089Z,99.30
2019-02-17T22:17:53.556Z,99.60
2019-02-17T22:20:25.728Z,99.90
2019-02-17T22:23:10.182Z,99.80
2019-02-17T22:28:44.514Z,99.90
2019-02-17T22:31:35.525Z,99.90
2019-02-17T22:34:19.465Z,99.90
2019-02-17T22:37:10.649Z,99.60
2019-02-17T22:39:43.098Z,99.70
2019-02-17T22:42:34.195Z,99.80
2019-02-17T22:45:17.878Z,99.90
2019-02-17T22:48:09.153Z,99.90
2019-02-17T22:50:52.515Z,99.90
2019-02-17T22:53:44.332Z,99.90
2019-02-17T22:56:48.117Z,99.90
2019-02-17T22:59:39.315Z,99.90
2019-02-17T23:02:23.166Z,99.90
2019-02-17T23:05:15.538Z,99.90
2019-02-17T23:07:59.977Z,99.90
2019-02-17T23:10:52.140Z,99.90
2019-02-17T23:13:34.323Z,99.90
2019-02-17T23:16:25.496Z,99.90
2019-02-17T23:19:10.444Z,99.90
2019-02-17T23:22:01.546Z,99.90
2019-02-17T23:24:45.310Z,99.90
2019-02-17T23:27:29.126Z,99.90
2019-02-17T23:30:20.253Z,99.90
2019-02-17T23:33:03.980Z,99.90
2019-02-17T23:35:55.183Z,99.90
2019-02-17T23:38:40.288Z,99.90
2019-02-17T23:41:31.495Z,99.90
2019-02-17T23:44:15.044Z,99.90
2019-02-17T23:47:06.565Z,99.90
2019-02-17T23:49:50.486Z,99.90
2019-02-17T23:52:41.709Z,99.90
2019-02-17T23:55:25.683Z,99.90
2019-02-17T23:58:09.903Z,99.90
